首页
METAR-TAF:

METAR-TAF

机场 :

蓬图瓦兹, 法国

纬度: 49-05-48N, 经度: 002-02-27E, 海拔: 99米

当前天气观测

该预报发布于39分钟前的21:00 UTC
风速3节,风向西
温度 16°C
湿度 88%
气压 1011 hPa
能见度10公里或以上
1500米以下无云,无积雨云

METAR: LFPT 192100Z AUTO 28003KT CAVOK 16/14 Q1011

时间: 23:39 (21:39 UTC)


TAF: 丢失

超过4000个机场的气象观测和天气预报(METAR&TAF报告)。

可查询的气象台以黄色和红色小点在地图上表示。

将鼠标移到小点上方,可查看气象台名称。

然后点击查看天气观测和预报。

如需切换地图:点击带黑十字的绿色按钮放大地图;点击带横线的绿色按钮缩小地图;或者点击绿色箭头查看邻近地区的地图。


METAR-TAF: